sensor_id;sensor_type;location;lat;lon;timestamp;P1;durP1;ratioP1;P2;durP2;ratioP2
6564;SDS011;3316;44.118;27.258;2022-12-18T00:00:44;13.63;;;8.87;;
6564;SDS011;3316;44.118;27.258;2022-12-18T00:03:12;13.07;;;9.17;;
6564;SDS011;3316;44.118;27.258;2022-12-18T00:05:45;15.27;;;9.00;;
6564;SDS011;3316;44.118;27.258;2022-12-18T00:08:14;17.97;;;8.37;;
6564;SDS011;3316;44.118;27.258;2022-12-18T00:10:39;13.73;;;9.23;;
6564;SDS011;3316;44.118;27.258;2022-12-18T00:13:05;13.93;;;8.73;;
6564;SDS011;3316;44.118;27.258;2022-12-18T00:15:30;12.20;;;7.77;;
6564;SDS011;3316;44.118;27.258;2022-12-18T00:17:59;14.03;;;8.60;;
6564;SDS011;3316;44.118;27.258;2022-12-18T00:20:24;14.40;;;9.40;;
6564;SDS011;3316;44.118;27.258;2022-12-18T00:22:51;15.60;;;9.00;;
6564;SDS011;3316;44.118;27.258;2022-12-18T00:25:17;17.33;;;9.80;;
6564;SDS011;3316;44.118;27.258;2022-12-18T00:27:43;15.30;;;8.50;;
6564;SDS011;3316;44.118;27.258;2022-12-18T00:30:08;14.43;;;9.13;;
6564;SDS011;3316;44.118;27.258;2022-12-18T00:32:34;15.50;;;9.87;;
6564;SDS011;3316;44.118;27.258;2022-12-18T00:34:59;18.63;;;10.13;;
6564;SDS011;3316;44.118;27.258;2022-12-18T00:37:25;16.90;;;9.37;;
6564;SDS011;3316;44.118;27.258;2022-12-18T00:39:50;15.20;;;9.57;;
6564;SDS011;3316;44.118;27.258;2022-12-18T00:42:16;15.30;;;8.77;;
6564;SDS011;3316;44.118;27.258;2022-12-18T00:44:59;16.67;;;10.37;;
6564;SDS011;3316;44.118;27.258;2022-12-18T00:47:25;15.73;;;9.23;;
6564;SDS011;3316;44.118;27.258;2022-12-18T00:49:50;19.47;;;10.50;;
6564;SDS011;3316;44.118;27.258;2022-12-18T00:52:16;20.13;;;11.33;;
6564;SDS011;3316;44.118;27.258;2022-12-18T00:54:41;15.93;;;10.37;;
6564;SDS011;3316;44.118;27.258;2022-12-18T00:57:06;19.10;;;10.77;;
6564;SDS011;3316;44.118;27.258;2022-12-18T00:59:32;21.17;;;11.37;;
6564;SDS011;3316;44.118;27.258;2022-12-18T01:01:57;20.83;;;11.23;;
6564;SDS011;3316;44.118;27.258;2022-12-18T01:04:23;16.80;;;10.70;;
6564;SDS011;3316;44.118;27.258;2022-12-18T01:06:48;17.63;;;10.60;;
6564;SDS011;3316;44.118;27.258;2022-12-18T01:09:13;21.73;;;12.10;;
6564;SDS011;3316;44.118;27.258;2022-12-18T01:11:39;17.27;;;9.93;;
6564;SDS011;3316;44.118;27.258;2022-12-18T01:14:05;22.37;;;11.80;;
6564;SDS011;3316;44.118;27.258;2022-12-18T01:16:30;18.93;;;10.57;;
6564;SDS011;3316;44.118;27.258;2022-12-18T01:18:56;18.03;;;10.53;;
6564;SDS011;3316;44.118;27.258;2022-12-18T01:21:22;21.90;;;11.70;;
6564;SDS011;3316;44.118;27.258;2022-12-18T01:23:54;18.23;;;10.47;;
6564;SDS011;3316;44.118;27.258;2022-12-18T01:26:20;20.67;;;11.83;;
6564;SDS011;3316;44.118;27.258;2022-12-18T01:28:47;20.80;;;12.00;;
6564;SDS011;3316;44.118;27.258;2022-12-18T01:31:19;17.03;;;10.43;;
6564;SDS011;3316;44.118;27.258;2022-12-18T01:33:46;20.70;;;11.53;;
6564;SDS011;3316;44.118;27.258;2022-12-18T01:36:31;18.77;;;11.40;;
6564;SDS011;3316;44.118;27.258;2022-12-18T01:39:04;20.73;;;11.73;;
6564;SDS011;3316;44.118;27.258;2022-12-18T01:41:31;21.63;;;11.43;;
6564;SDS011;3316;44.118;27.258;2022-12-18T01:48:01;22.97;;;13.50;;
6564;SDS011;3316;44.118;27.258;2022-12-18T01:50:08;23.97;;;13.23;;
6564;SDS011;3316;44.118;27.258;2022-12-18T01:52:36;24.63;;;13.70;;
6564;SDS011;3316;44.118;27.258;2022-12-18T01:55:05;24.67;;;13.77;;
6564;SDS011;3316;44.118;27.258;2022-12-18T01:57:32;25.50;;;14.07;;
6564;SDS011;3316;44.118;27.258;2022-12-18T02:00:00;25.43;;;14.00;;
6564;SDS011;3316;44.118;27.258;2022-12-18T02:02:28;25.87;;;13.73;;
6564;SDS011;3316;44.118;27.258;2022-12-18T02:04:54;23.67;;;13.37;;
6564;SDS011;3316;44.118;27.258;2022-12-18T02:09:54;21.20;;;13.27;;
6564;SDS011;3316;44.118;27.258;2022-12-18T02:13:03;29.80;;;13.70;;
6564;SDS011;3316;44.118;27.258;2022-12-18T02:15:31;26.93;;;13.73;;
6564;SDS011;3316;44.118;27.258;2022-12-18T02:18:08;27.13;;;13.80;;
6564;SDS011;3316;44.118;27.258;2022-12-18T02:20:47;28.03;;;14.70;;
6564;SDS011;3316;44.118;27.258;2022-12-18T02:23:24;26.93;;;13.93;;
6564;SDS011;3316;44.118;27.258;2022-12-18T02:28:47;27.17;;;14.10;;
6564;SDS011;3316;44.118;27.258;2022-12-18T02:31:21;28.17;;;15.80;;
6564;SDS011;3316;44.118;27.258;2022-12-18T02:33:51;35.03;;;17.20;;
6564;SDS011;3316;44.118;27.258;2022-12-18T02:36:20;31.77;;;14.93;;
6564;SDS011;3316;44.118;27.258;2022-12-18T02:38:48;31.40;;;16.37;;
6564;SDS011;3316;44.118;27.258;2022-12-18T02:41:16;31.20;;;15.67;;
6564;SDS011;3316;44.118;27.258;2022-12-18T02:43:47;30.33;;;16.33;;
6564;SDS011;3316;44.118;27.258;2022-12-18T02:52:19;27.37;;;15.93;;
6564;SDS011;3316;44.118;27.258;2022-12-18T03:05:25;30.13;;;17.10;;
6564;SDS011;3316;44.118;27.258;2022-12-18T03:08:04;32.33;;;16.40;;
6564;SDS011;3316;44.118;27.258;2022-12-18T03:10:39;33.13;;;17.47;;
6564;SDS011;3316;44.118;27.258;2022-12-18T03:13:12;29.77;;;16.70;;
6564;SDS011;3316;44.118;27.258;2022-12-18T03:15:42;33.63;;;17.87;;
6564;SDS011;3316;44.118;27.258;2022-12-18T03:18:13;30.73;;;17.33;;
6564;SDS011;3316;44.118;27.258;2022-12-18T03:20:43;35.83;;;18.37;;
6564;SDS011;3316;44.118;27.258;2022-12-18T03:23:15;37.50;;;19.07;;
6564;SDS011;3316;44.118;27.258;2022-12-18T03:25:44;30.67;;;16.73;;
6564;SDS011;3316;44.118;27.258;2022-12-18T03:28:15;31.43;;;16.80;;
6564;SDS011;3316;44.118;27.258;2022-12-18T03:30:45;32.07;;;17.07;;
6564;SDS011;3316;44.118;27.258;2022-12-18T03:33:16;37.43;;;19.20;;
6564;SDS011;3316;44.118;27.258;2022-12-18T03:35:46;35.30;;;19.03;;
6564;SDS011;3316;44.118;27.258;2022-12-18T03:38:12;38.43;;;19.30;;
6564;SDS011;3316;44.118;27.258;2022-12-18T03:43:18;35.27;;;18.60;;
6564;SDS011;3316;44.118;27.258;2022-12-18T03:46:03;35.27;;;18.73;;
6564;SDS011;3316;44.118;27.258;2022-12-18T03:48:57;38.40;;;20.50;;
6564;SDS011;3316;44.118;27.258;2022-12-18T03:52:05;39.33;;;19.27;;
6564;SDS011;3316;44.118;27.258;2022-12-18T03:54:34;45.30;;;20.60;;
6564;SDS011;3316;44.118;27.258;2022-12-18T03:57:04;37.80;;;19.73;;
6564;SDS011;3316;44.118;27.258;2022-12-18T03:59:42;39.47;;;19.70;;
6564;SDS011;3316;44.118;27.258;2022-12-18T04:02:10;42.70;;;21.17;;
6564;SDS011;3316;44.118;27.258;2022-12-18T04:04:36;38.63;;;20.00;;
6564;SDS011;3316;44.118;27.258;2022-12-18T04:07:03;40.40;;;20.30;;
6564;SDS011;3316;44.118;27.258;2022-12-18T04:09:29;40.53;;;21.17;;
6564;SDS011;3316;44.118;27.258;2022-12-18T04:11:56;44.87;;;19.70;;
6564;SDS011;3316;44.118;27.258;2022-12-18T04:14:22;39.50;;;20.03;;
6564;SDS011;3316;44.118;27.258;2022-12-18T04:16:47;38.90;;;21.10;;
6564;SDS011;3316;44.118;27.258;2022-12-18T04:19:13;44.60;;;21.60;;
6564;SDS011;3316;44.118;27.258;2022-12-18T04:21:38;42.10;;;21.77;;
6564;SDS011;3316;44.118;27.258;2022-12-18T04:24:04;37.17;;;19.23;;
6564;SDS011;3316;44.118;27.258;2022-12-18T04:26:30;44.33;;;21.73;;
6564;SDS011;3316;44.118;27.258;2022-12-18T04:28:55;40.50;;;19.93;;
6564;SDS011;3316;44.118;27.258;2022-12-18T04:31:21;45.60;;;22.63;;
6564;SDS011;3316;44.118;27.258;2022-12-18T04:33:46;44.37;;;20.80;;
6564;SDS011;3316;44.118;27.258;2022-12-18T04:36:11;44.33;;;21.90;;
6564;SDS011;3316;44.118;27.258;2022-12-18T04:38:37;42.67;;;22.20;;
6564;SDS011;3316;44.118;27.258;2022-12-18T04:41:03;48.83;;;23.20;;
6564;SDS011;3316;44.118;27.258;2022-12-18T04:43:28;45.07;;;23.23;;
6564;SDS011;3316;44.118;27.258;2022-12-18T04:46:00;47.63;;;23.67;;
6564;SDS011;3316;44.118;27.258;2022-12-18T04:48:29;49.40;;;23.63;;
6564;SDS011;3316;44.118;27.258;2022-12-18T04:50:55;46.93;;;23.87;;
6564;SDS011;3316;44.118;27.258;2022-12-18T04:53:20;52.53;;;25.23;;
6564;SDS011;3316;44.118;27.258;2022-12-18T04:55:45;47.97;;;22.77;;
6564;SDS011;3316;44.118;27.258;2022-12-18T04:58:11;46.97;;;24.17;;
6564;SDS011;3316;44.118;27.258;2022-12-18T05:00:36;50.60;;;24.10;;
6564;SDS011;3316;44.118;27.258;2022-12-18T05:03:02;56.57;;;25.47;;
6564;SDS011;3316;44.118;27.258;2022-12-18T05:05:28;54.13;;;26.63;;
6564;SDS011;3316;44.118;27.258;2022-12-18T05:07:53;61.77;;;26.57;;
6564;SDS011;3316;44.118;27.258;2022-12-18T05:10:18;57.57;;;26.93;;
6564;SDS011;3316;44.118;27.258;2022-12-18T05:12:44;51.80;;;25.67;;
6564;SDS011;3316;44.118;27.258;2022-12-18T05:15:28;52.87;;;27.00;;
6564;SDS011;3316;44.118;27.258;2022-12-18T05:17:55;54.43;;;27.73;;
6564;SDS011;3316;44.118;27.258;2022-12-18T05:20:21;50.60;;;25.40;;
6564;SDS011;3316;44.118;27.258;2022-12-18T05:22:46;60.93;;;27.13;;
6564;SDS011;3316;44.118;27.258;2022-12-18T05:25:12;58.30;;;27.90;;
6564;SDS011;3316;44.118;27.258;2022-12-18T05:27:37;54.73;;;25.63;;
6564;SDS011;3316;44.118;27.258;2022-12-18T05:30:03;61.70;;;26.77;;
6564;SDS011;3316;44.118;27.258;2022-12-18T05:32:28;52.57;;;25.23;;
6564;SDS011;3316;44.118;27.258;2022-12-18T05:34:54;57.73;;;27.27;;
6564;SDS011;3316;44.118;27.258;2022-12-18T05:37:19;57.03;;;26.70;;
6564;SDS011;3316;44.118;27.258;2022-12-18T05:39:45;57.87;;;26.40;;
6564;SDS011;3316;44.118;27.258;2022-12-18T05:42:11;62.03;;;27.13;;
6564;SDS011;3316;44.118;27.258;2022-12-18T05:44:36;61.03;;;27.73;;
6564;SDS011;3316;44.118;27.258;2022-12-18T05:47:02;60.33;;;27.07;;
6564;SDS011;3316;44.118;27.258;2022-12-18T05:49:27;67.23;;;28.73;;
6564;SDS011;3316;44.118;27.258;2022-12-18T05:51:52;58.23;;;27.47;;
6564;SDS011;3316;44.118;27.258;2022-12-18T05:54:18;67.07;;;31.53;;
6564;SDS011;3316;44.118;27.258;2022-12-18T05:56:43;61.87;;;29.87;;
6564;SDS011;3316;44.118;27.258;2022-12-18T05:59:09;67.03;;;28.17;;
6564;SDS011;3316;44.118;27.258;2022-12-18T06:01:34;63.70;;;29.37;;
6564;SDS011;3316;44.118;27.258;2022-12-18T06:04:00;69.00;;;28.20;;
6564;SDS011;3316;44.118;27.258;2022-12-18T06:06:26;57.10;;;28.40;;
6564;SDS011;3316;44.118;27.258;2022-12-18T06:08:53;61.13;;;28.00;;
6564;SDS011;3316;44.118;27.258;2022-12-18T06:11:20;64.53;;;29.07;;
6564;SDS011;3316;44.118;27.258;2022-12-18T06:13:49;68.27;;;29.60;;
6564;SDS011;3316;44.118;27.258;2022-12-18T06:16:16;64.17;;;30.03;;
6564;SDS011;3316;44.118;27.258;2022-12-18T06:18:41;61.40;;;28.83;;
6564;SDS011;3316;44.118;27.258;2022-12-18T06:21:07;58.20;;;27.60;;
6564;SDS011;3316;44.118;27.258;2022-12-18T06:23:32;62.30;;;28.77;;
6564;SDS011;3316;44.118;27.258;2022-12-18T06:25:58;59.40;;;27.67;;
6564;SDS011;3316;44.118;27.258;2022-12-18T06:28:23;61.77;;;29.13;;
6564;SDS011;3316;44.118;27.258;2022-12-18T06:30:49;63.80;;;29.53;;
6564;SDS011;3316;44.118;27.258;2022-12-18T06:33:15;69.60;;;30.63;;
6564;SDS011;3316;44.118;27.258;2022-12-18T06:35:41;64.43;;;28.57;;
6564;SDS011;3316;44.118;27.258;2022-12-18T06:38:07;69.17;;;29.83;;
6564;SDS011;3316;44.118;27.258;2022-12-18T06:40:32;61.23;;;29.90;;
6564;SDS011;3316;44.118;27.258;2022-12-18T06:42:58;64.27;;;31.13;;
6564;SDS011;3316;44.118;27.258;2022-12-18T06:45:23;64.63;;;27.93;;
6564;SDS011;3316;44.118;27.258;2022-12-18T06:47:49;65.13;;;27.17;;
6564;SDS011;3316;44.118;27.258;2022-12-18T06:50:15;65.37;;;29.10;;
6564;SDS011;3316;44.118;27.258;2022-12-18T06:52:40;58.33;;;28.07;;
6564;SDS011;3316;44.118;27.258;2022-12-18T06:55:07;66.23;;;28.63;;
6564;SDS011;3316;44.118;27.258;2022-12-18T06:57:33;64.03;;;28.07;;
6564;SDS011;3316;44.118;27.258;2022-12-18T06:59:59;67.07;;;29.33;;
6564;SDS011;3316;44.118;27.258;2022-12-18T07:02:25;55.70;;;26.57;;
6564;SDS011;3316;44.118;27.258;2022-12-18T07:04:50;57.47;;;27.67;;
6564;SDS011;3316;44.118;27.258;2022-12-18T07:07:15;64.27;;;29.33;;
6564;SDS011;3316;44.118;27.258;2022-12-18T07:09:41;52.83;;;26.93;;
6564;SDS011;3316;44.118;27.258;2022-12-18T07:12:07;57.30;;;27.63;;
6564;SDS011;3316;44.118;27.258;2022-12-18T07:14:33;53.77;;;26.77;;
6564;SDS011;3316;44.118;27.258;2022-12-18T07:16:58;56.40;;;26.37;;
6564;SDS011;3316;44.118;27.258;2022-12-18T07:19:24;56.20;;;26.60;;
6564;SDS011;3316;44.118;27.258;2022-12-18T07:21:50;55.57;;;27.60;;
6564;SDS011;3316;44.118;27.258;2022-12-18T07:24:15;55.00;;;27.07;;
6564;SDS011;3316;44.118;27.258;2022-12-18T07:26:41;58.57;;;27.47;;
6564;SDS011;3316;44.118;27.258;2022-12-18T07:29:06;61.10;;;25.83;;
6564;SDS011;3316;44.118;27.258;2022-12-18T07:31:32;59.17;;;27.23;;
6564;SDS011;3316;44.118;27.258;2022-12-18T07:33:57;51.53;;;25.57;;
6564;SDS011;3316;44.118;27.258;2022-12-18T07:36:22;52.83;;;25.57;;
6564;SDS011;3316;44.118;27.258;2022-12-18T07:38:48;56.40;;;28.57;;
6564;SDS011;3316;44.118;27.258;2022-12-18T07:41:14;55.53;;;25.87;;
6564;SDS011;3316;44.118;27.258;2022-12-18T07:43:40;61.50;;;28.33;;
6564;SDS011;3316;44.118;27.258;2022-12-18T07:46:06;61.80;;;27.67;;
6564;SDS011;3316;44.118;27.258;2022-12-18T07:48:33;55.60;;;27.30;;
6564;SDS011;3316;44.118;27.258;2022-12-18T07:51:02;58.50;;;27.83;;
6564;SDS011;3316;44.118;27.258;2022-12-18T07:53:30;61.57;;;27.17;;
6564;SDS011;3316;44.118;27.258;2022-12-18T07:55:56;59.73;;;27.03;;
6564;SDS011;3316;44.118;27.258;2022-12-18T07:58:22;57.47;;;27.93;;
6564;SDS011;3316;44.118;27.258;2022-12-18T08:00:48;54.50;;;26.10;;
6564;SDS011;3316;44.118;27.258;2022-12-18T08:03:13;57.40;;;28.37;;
6564;SDS011;3316;44.118;27.258;2022-12-18T08:05:38;59.60;;;27.57;;
6564;SDS011;3316;44.118;27.258;2022-12-18T08:08:04;60.30;;;28.90;;
6564;SDS011;3316;44.118;27.258;2022-12-18T08:10:30;63.37;;;30.97;;
6564;SDS011;3316;44.118;27.258;2022-12-18T08:12:55;68.30;;;28.87;;
6564;SDS011;3316;44.118;27.258;2022-12-18T08:15:20;63.73;;;31.87;;
6564;SDS011;3316;44.118;27.258;2022-12-18T08:17:46;62.57;;;30.10;;
6564;SDS011;3316;44.118;27.258;2022-12-18T08:20:11;60.20;;;28.10;;
6564;SDS011;3316;44.118;27.258;2022-12-18T08:22:39;65.03;;;29.30;;
6564;SDS011;3316;44.118;27.258;2022-12-18T08:25:06;65.63;;;28.30;;
6564;SDS011;3316;44.118;27.258;2022-12-18T08:27:32;63.30;;;29.80;;
6564;SDS011;3316;44.118;27.258;2022-12-18T08:29:57;69.43;;;29.90;;
6564;SDS011;3316;44.118;27.258;2022-12-18T08:32:23;64.80;;;30.03;;
6564;SDS011;3316;44.118;27.258;2022-12-18T08:34:50;66.97;;;30.57;;
6564;SDS011;3316;44.118;27.258;2022-12-18T08:37:15;71.47;;;30.50;;
6564;SDS011;3316;44.118;27.258;2022-12-18T08:39:41;68.57;;;32.17;;
6564;SDS011;3316;44.118;27.258;2022-12-18T08:42:06;65.23;;;29.73;;
6564;SDS011;3316;44.118;27.258;2022-12-18T08:44:50;63.70;;;28.37;;
6564;SDS011;3316;44.118;27.258;2022-12-18T08:47:15;59.93;;;29.87;;
6564;SDS011;3316;44.118;27.258;2022-12-18T08:49:41;62.53;;;30.83;;
6564;SDS011;3316;44.118;27.258;2022-12-18T08:52:06;76.37;;;33.47;;
6564;SDS011;3316;44.118;27.258;2022-12-18T08:54:32;72.60;;;32.00;;
6564;SDS011;3316;44.118;27.258;2022-12-18T08:56:57;70.77;;;33.37;;
6564;SDS011;3316;44.118;27.258;2022-12-18T08:59:23;72.50;;;32.20;;
6564;SDS011;3316;44.118;27.258;2022-12-18T09:01:48;77.37;;;32.40;;
6564;SDS011;3316;44.118;27.258;2022-12-18T09:04:14;75.07;;;34.07;;
6564;SDS011;3316;44.118;27.258;2022-12-18T09:06:39;72.13;;;31.50;;
6564;SDS011;3316;44.118;27.258;2022-12-18T09:09:05;86.57;;;34.90;;
6564;SDS011;3316;44.118;27.258;2022-12-18T09:11:33;75.97;;;32.83;;
6564;SDS011;3316;44.118;27.258;2022-12-18T09:13:59;70.40;;;33.57;;
6564;SDS011;3316;44.118;27.258;2022-12-18T09:16:27;74.30;;;33.13;;
6564;SDS011;3316;44.118;27.258;2022-12-18T09:18:56;79.17;;;32.93;;
6564;SDS011;3316;44.118;27.258;2022-12-18T09:21:25;64.20;;;30.67;;
6564;SDS011;3316;44.118;27.258;2022-12-18T09:23:53;69.10;;;31.63;;
6564;SDS011;3316;44.118;27.258;2022-12-18T09:26:20;72.03;;;32.83;;
6564;SDS011;3316;44.118;27.258;2022-12-18T09:28:46;69.80;;;32.20;;
6564;SDS011;3316;44.118;27.258;2022-12-18T09:31:15;66.17;;;29.27;;
6564;SDS011;3316;44.118;27.258;2022-12-18T09:33:41;72.87;;;31.80;;
6564;SDS011;3316;44.118;27.258;2022-12-18T09:36:08;70.97;;;30.40;;
6564;SDS011;3316;44.118;27.258;2022-12-18T09:38:36;67.70;;;30.80;;
6564;SDS011;3316;44.118;27.258;2022-12-18T09:41:45;77.27;;;32.77;;
6564;SDS011;3316;44.118;27.258;2022-12-18T09:47:08;65.60;;;29.87;;
6564;SDS011;3316;44.118;27.258;2022-12-18T09:49:56;66.67;;;30.17;;
6564;SDS011;3316;44.118;27.258;2022-12-18T09:52:33;65.03;;;29.67;;
6564;SDS011;3316;44.118;27.258;2022-12-18T09:55:09;64.57;;;30.17;;
6564;SDS011;3316;44.118;27.258;2022-12-18T09:57:51;74.77;;;33.27;;
6564;SDS011;3316;44.118;27.258;2022-12-18T10:00:21;70.70;;;31.03;;
6564;SDS011;3316;44.118;27.258;2022-12-18T10:02:48;67.20;;;30.80;;
6564;SDS011;3316;44.118;27.258;2022-12-18T10:05:37;61.23;;;29.13;;
6564;SDS011;3316;44.118;27.258;2022-12-18T10:08:17;64.30;;;29.33;;
6564;SDS011;3316;44.118;27.258;2022-12-18T10:10:53;62.80;;;30.17;;
6564;SDS011;3316;44.118;27.258;2022-12-18T10:13:38;67.27;;;32.43;;
6564;SDS011;3316;44.118;27.258;2022-12-18T10:16:16;62.70;;;29.43;;
6564;SDS011;3316;44.118;27.258;2022-12-18T10:22:00;61.83;;;29.97;;
6564;SDS011;3316;44.118;27.258;2022-12-18T10:24:42;73.77;;;33.90;;
6564;SDS011;3316;44.118;27.258;2022-12-18T10:27:27;75.37;;;37.47;;
6564;SDS011;3316;44.118;27.258;2022-12-18T10:29:54;73.97;;;34.13;;
6564;SDS011;3316;44.118;27.258;2022-12-18T10:32:21;66.73;;;31.70;;
6564;SDS011;3316;44.118;27.258;2022-12-18T10:34:50;66.23;;;31.87;;
6564;SDS011;3316;44.118;27.258;2022-12-18T10:37:17;67.40;;;31.53;;
6564;SDS011;3316;44.118;27.258;2022-12-18T10:39:45;68.57;;;31.20;;
6564;SDS011;3316;44.118;27.258;2022-12-18T10:42:18;64.70;;;31.10;;
6564;SDS011;3316;44.118;27.258;2022-12-18T10:44:44;63.83;;;30.70;;
6564;SDS011;3316;44.118;27.258;2022-12-18T10:47:12;68.00;;;30.80;;
6564;SDS011;3316;44.118;27.258;2022-12-18T10:49:49;70.37;;;30.83;;
6564;SDS011;3316;44.118;27.258;2022-12-18T10:52:19;67.83;;;31.43;;
6564;SDS011;3316;44.118;27.258;2022-12-18T10:54:48;66.63;;;31.43;;
6564;SDS011;3316;44.118;27.258;2022-12-18T10:57:29;67.60;;;31.53;;
6564;SDS011;3316;44.118;27.258;2022-12-18T11:03:00;66.20;;;30.97;;
6564;SDS011;3316;44.118;27.258;2022-12-18T11:07:56;63.47;;;30.63;;
6564;SDS011;3316;44.118;27.258;2022-12-18T11:13:17;62.60;;;30.63;;
6564;SDS011;3316;44.118;27.258;2022-12-18T11:15:45;52.83;;;27.60;;
6564;SDS011;3316;44.118;27.258;2022-12-18T11:18:19;55.97;;;27.83;;
6564;SDS011;3316;44.118;27.258;2022-12-18T11:20:58;65.13;;;28.30;;
6564;SDS011;3316;44.118;27.258;2022-12-18T11:23:25;54.63;;;26.93;;
6564;SDS011;3316;44.118;27.258;2022-12-18T11:25:53;48.03;;;23.83;;
6564;SDS011;3316;44.118;27.258;2022-12-18T11:28:34;55.23;;;25.40;;
6564;SDS011;3316;44.118;27.258;2022-12-18T11:31:11;50.50;;;24.50;;
6564;SDS011;3316;44.118;27.258;2022-12-18T11:33:38;59.30;;;26.73;;
6564;SDS011;3316;44.118;27.258;2022-12-18T11:36:07;46.50;;;24.07;;
6564;SDS011;3316;44.118;27.258;2022-12-18T11:38:36;52.53;;;24.33;;
6564;SDS011;3316;44.118;27.258;2022-12-18T11:44:13;38.13;;;21.40;;
6564;SDS011;3316;44.118;27.258;2022-12-18T11:46:49;39.90;;;22.43;;
6564;SDS011;3316;44.118;27.258;2022-12-18T11:49:22;45.50;;;21.40;;
6564;SDS011;3316;44.118;27.258;2022-12-18T11:52:42;43.63;;;22.13;;
6564;SDS011;3316;44.118;27.258;2022-12-18T11:54:55;34.67;;;19.80;;
6564;SDS011;3316;44.118;27.258;2022-12-18T11:57:35;27.40;;;15.03;;
6564;SDS011;3316;44.118;27.258;2022-12-18T12:00:18;22.90;;;13.57;;
6564;SDS011;3316;44.118;27.258;2022-12-18T12:19:26;25.20;;;15.30;;
6564;SDS011;3316;44.118;27.258;2022-12-18T12:27:32;28.17;;;14.43;;
6564;SDS011;3316;44.118;27.258;2022-12-18T12:30:05;26.20;;;14.00;;
6564;SDS011;3316;44.118;27.258;2022-12-18T12:40:05;34.63;;;18.97;;
6564;SDS011;3316;44.118;27.258;2022-12-18T12:42:37;32.47;;;19.03;;
6564;SDS011;3316;44.118;27.258;2022-12-18T12:45:36;29.63;;;17.13;;
6564;SDS011;3316;44.118;27.258;2022-12-18T12:48:13;32.43;;;18.87;;
6564;SDS011;3316;44.118;27.258;2022-12-18T12:50:43;32.73;;;16.97;;
6564;SDS011;3316;44.118;27.258;2022-12-18T12:53:12;30.23;;;17.00;;
6564;SDS011;3316;44.118;27.258;2022-12-18T12:55:46;35.30;;;17.80;;
6564;SDS011;3316;44.118;27.258;2022-12-18T12:58:18;30.30;;;16.73;;
6564;SDS011;3316;44.118;27.258;2022-12-18T13:06:02;30.07;;;15.27;;
6564;SDS011;3316;44.118;27.258;2022-12-18T13:08:59;25.80;;;12.83;;
6564;SDS011;3316;44.118;27.258;2022-12-18T13:11:39;26.17;;;13.47;;
6564;SDS011;3316;44.118;27.258;2022-12-18T13:17:17;25.47;;;14.83;;
6564;SDS011;3316;44.118;27.258;2022-12-18T13:20:15;30.43;;;14.37;;
6564;SDS011;3316;44.118;27.258;2022-12-18T13:22:42;29.67;;;14.97;;
6564;SDS011;3316;44.118;27.258;2022-12-18T13:28:01;39.97;;;16.03;;
6564;SDS011;3316;44.118;27.258;2022-12-18T13:40:56;27.83;;;13.60;;
6564;SDS011;3316;44.118;27.258;2022-12-18T13:43:26;27.77;;;13.13;;
6564;SDS011;3316;44.118;27.258;2022-12-18T13:46:02;28.07;;;13.83;;
6564;SDS011;3316;44.118;27.258;2022-12-18T13:51:23;30.97;;;16.60;;
6564;SDS011;3316;44.118;27.258;2022-12-18T13:56:25;27.67;;;14.00;;
6564;SDS011;3316;44.118;27.258;2022-12-18T14:01:33;31.33;;;16.10;;
6564;SDS011;3316;44.118;27.258;2022-12-18T14:04:08;33.43;;;17.67;;
6564;SDS011;3316;44.118;27.258;2022-12-18T14:06:42;35.73;;;17.87;;
6564;SDS011;3316;44.118;27.258;2022-12-18T14:09:12;38.80;;;19.47;;
6564;SDS011;3316;44.118;27.258;2022-12-18T14:11:40;47.17;;;20.07;;
6564;SDS011;3316;44.118;27.258;2022-12-18T14:14:12;35.43;;;18.53;;
6564;SDS011;3316;44.118;27.258;2022-12-18T14:16:40;34.10;;;15.70;;
6564;SDS011;3316;44.118;27.258;2022-12-18T14:19:08;28.80;;;15.40;;
6564;SDS011;3316;44.118;27.258;2022-12-18T14:21:39;33.70;;;17.47;;
6564;SDS011;3316;44.118;27.258;2022-12-18T14:24:11;32.57;;;16.30;;
6564;SDS011;3316;44.118;27.258;2022-12-18T14:26:42;33.77;;;16.20;;
6564;SDS011;3316;44.118;27.258;2022-12-18T14:32:12;29.07;;;14.30;;
6564;SDS011;3316;44.118;27.258;2022-12-18T14:34:41;31.47;;;16.00;;
6564;SDS011;3316;44.118;27.258;2022-12-18T14:37:09;41.70;;;17.90;;
6564;SDS011;3316;44.118;27.258;2022-12-18T14:39:36;32.43;;;16.43;;
6564;SDS011;3316;44.118;27.258;2022-12-18T14:42:02;34.47;;;16.53;;
6564;SDS011;3316;44.118;27.258;2022-12-18T14:44:27;40.27;;;16.90;;
6564;SDS011;3316;44.118;27.258;2022-12-18T14:46:53;33.40;;;16.67;;
6564;SDS011;3316;44.118;27.258;2022-12-18T14:49:26;34.43;;;17.17;;
6564;SDS011;3316;44.118;27.258;2022-12-18T14:51:57;38.47;;;18.87;;
6564;SDS011;3316;44.118;27.258;2022-12-18T14:54:27;36.17;;;17.30;;
6564;SDS011;3316;44.118;27.258;2022-12-18T14:57:04;35.60;;;17.23;;
6564;SDS011;3316;44.118;27.258;2022-12-18T14:59:41;41.13;;;19.90;;
6564;SDS011;3316;44.118;27.258;2022-12-18T15:07:43;31.37;;;15.97;;
6564;SDS011;3316;44.118;27.258;2022-12-18T15:10:20;36.50;;;16.20;;
6564;SDS011;3316;44.118;27.258;2022-12-18T15:20:33;38.20;;;17.97;;
6564;SDS011;3316;44.118;27.258;2022-12-18T15:26:14;41.73;;;16.77;;
6564;SDS011;3316;44.118;27.258;2022-12-18T15:36:18;34.60;;;17.00;;
6564;SDS011;3316;44.118;27.258;2022-12-18T15:38:52;35.60;;;17.97;;
6564;SDS011;3316;44.118;27.258;2022-12-18T15:41:19;41.70;;;18.03;;
6564;SDS011;3316;44.118;27.258;2022-12-18T15:43:47;32.37;;;16.87;;
6564;SDS011;3316;44.118;27.258;2022-12-18T15:46:18;33.10;;;16.77;;
6564;SDS011;3316;44.118;27.258;2022-12-18T15:48:48;41.80;;;18.87;;
6564;SDS011;3316;44.118;27.258;2022-12-18T15:51:16;43.90;;;19.40;;
6564;SDS011;3316;44.118;27.258;2022-12-18T15:53:45;39.87;;;18.03;;
6564;SDS011;3316;44.118;27.258;2022-12-18T15:56:12;40.23;;;18.70;;
6564;SDS011;3316;44.118;27.258;2022-12-18T15:58:58;35.17;;;18.03;;
6564;SDS011;3316;44.118;27.258;2022-12-18T16:01:24;40.83;;;19.83;;
6564;SDS011;3316;44.118;27.258;2022-12-18T16:03:51;35.77;;;16.83;;
6564;SDS011;3316;44.118;27.258;2022-12-18T16:06:17;36.33;;;16.63;;
6564;SDS011;3316;44.118;27.258;2022-12-18T16:08:42;38.90;;;17.83;;
6564;SDS011;3316;44.118;27.258;2022-12-18T16:11:11;39.10;;;20.27;;
6564;SDS011;3316;44.118;27.258;2022-12-18T16:14:03;36.93;;;18.27;;
6564;SDS011;3316;44.118;27.258;2022-12-18T16:16:42;37.30;;;18.97;;
6564;SDS011;3316;44.118;27.258;2022-12-18T16:19:08;36.27;;;18.30;;
6564;SDS011;3316;44.118;27.258;2022-12-18T16:21:33;36.80;;;18.20;;
6564;SDS011;3316;44.118;27.258;2022-12-18T16:23:59;39.40;;;18.93;;
6564;SDS011;3316;44.118;27.258;2022-12-18T16:26:24;42.40;;;20.77;;
6564;SDS011;3316;44.118;27.258;2022-12-18T16:28:50;36.20;;;18.10;;
6564;SDS011;3316;44.118;27.258;2022-12-18T16:31:15;46.60;;;20.67;;
6564;SDS011;3316;44.118;27.258;2022-12-18T16:33:40;41.70;;;19.97;;
6564;SDS011;3316;44.118;27.258;2022-12-18T16:36:06;38.37;;;18.93;;
6564;SDS011;3316;44.118;27.258;2022-12-18T16:38:32;37.17;;;18.50;;
6564;SDS011;3316;44.118;27.258;2022-12-18T16:40:58;38.77;;;17.67;;
6564;SDS011;3316;44.118;27.258;2022-12-18T16:43:42;38.70;;;19.00;;
6564;SDS011;3316;44.118;27.258;2022-12-18T16:46:07;36.47;;;18.60;;
6564;SDS011;3316;44.118;27.258;2022-12-18T16:48:33;37.27;;;18.67;;
6564;SDS011;3316;44.118;27.258;2022-12-18T16:51:02;33.00;;;16.10;;
6564;SDS011;3316;44.118;27.258;2022-12-18T16:53:29;36.90;;;18.80;;
6564;SDS011;3316;44.118;27.258;2022-12-18T16:55:56;39.70;;;18.47;;
6564;SDS011;3316;44.118;27.258;2022-12-18T16:58:22;39.73;;;19.00;;
6564;SDS011;3316;44.118;27.258;2022-12-18T17:00:47;38.97;;;17.23;;